sensor_id;sensor_type;location;lat;lon;timestamp;pressure;altitude;pressure_sealevel;temperature;humidity
75745;BME280;64359;51.366;-0.222;2023-07-31T00:00:32;100632.88;;;22.92;62.06
75745;BME280;64359;51.366;-0.222;2023-07-31T00:01:37;100625.72;;;22.88;62.11
75745;BME280;64359;51.366;-0.222;2023-07-31T00:02:41;100629.15;;;22.91;62.05
75745;BME280;64359;51.366;-0.222;2023-07-31T00:03:47;100625.06;;;22.91;61.88
75745;BME280;64359;51.366;-0.222;2023-07-31T00:04:51;100618.44;;;22.86;62.07
75745;BME280;64359;51.366;-0.222;2023-07-31T00:05:56;100622.72;;;22.90;61.99
75745;BME280;64359;51.366;-0.222;2023-07-31T00:07:00;100622.05;;;22.90;62.17
75745;BME280;64359;51.366;-0.222;2023-07-31T00:08:07;100624.14;;;22.89;62.27
75745;BME280;64359;51.366;-0.222;2023-07-31T00:09:11;100611.58;;;22.84;62.05
75745;BME280;64359;51.366;-0.222;2023-07-31T00:10:16;100617.08;;;22.88;62.03
75745;BME280;64359;51.366;-0.222;2023-07-31T00:11:20;100618.23;;;22.87;62.17
75745;BME280;64359;51.366;-0.222;2023-07-31T00:12:24;100614.86;;;22.87;62.09
75745;BME280;64359;51.366;-0.222;2023-07-31T00:13:29;100607.73;;;22.82;62.20
75745;BME280;64359;51.366;-0.222;2023-07-31T00:14:33;100613.02;;;22.86;62.14
75745;BME280;64359;51.366;-0.222;2023-07-31T00:15:37;100610.02;;;22.85;62.19
75745;BME280;64359;51.366;-0.222;2023-07-31T00:16:42;100600.84;;;22.82;62.37
75745;BME280;64359;51.366;-0.222;2023-07-31T00:17:46;100612.10;;;22.86;62.19
75745;BME280;64359;51.366;-0.222;2023-07-31T00:18:51;100610.39;;;22.86;62.30
75745;BME280;64359;51.366;-0.222;2023-07-31T00:19:55;100605.24;;;22.87;62.41
75745;BME280;64359;51.366;-0.222;2023-07-31T00:21:00;100606.63;;;22.88;62.24
75745;BME280;64359;51.366;-0.222;2023-07-31T00:22:05;100593.58;;;22.84;62.16
75745;BME280;64359;51.366;-0.222;2023-07-31T00:23:09;100600.58;;;22.88;62.28
75745;BME280;64359;51.366;-0.222;2023-07-31T00:24:13;100602.28;;;22.88;62.19
75745;BME280;64359;51.366;-0.222;2023-07-31T00:25:18;100599.90;;;22.88;62.14
75745;BME280;64359;51.366;-0.222;2023-07-31T00:26:22;100601.02;;;22.87;62.12
75745;BME280;64359;51.366;-0.222;2023-07-31T00:27:27;100599.02;;;22.88;62.05
75745;BME280;64359;51.366;-0.222;2023-07-31T00:28:31;100595.26;;;22.87;62.14
75745;BME280;64359;51.366;-0.222;2023-07-31T00:29:35;100596.52;;;22.87;62.13
75745;BME280;64359;51.366;-0.222;2023-07-31T00:30:40;100593.34;;;22.87;62.09
75745;BME280;64359;51.366;-0.222;2023-07-31T00:31:45;100594.84;;;22.86;62.13
75745;BME280;64359;51.366;-0.222;2023-07-31T00:32:49;100593.05;;;22.86;62.06
75745;BME280;64359;51.366;-0.222;2023-07-31T00:33:54;100591.88;;;22.85;62.15
75745;BME280;64359;51.366;-0.222;2023-07-31T00:34:58;100590.61;;;22.85;62.17
75745;BME280;64359;51.366;-0.222;2023-07-31T00:36:02;100583.63;;;22.81;61.98
75745;BME280;64359;51.366;-0.222;2023-07-31T00:37:07;100592.08;;;22.84;62.15
75745;BME280;64359;51.366;-0.222;2023-07-31T00:38:11;100585.19;;;22.83;62.02
75745;BME280;64359;51.366;-0.222;2023-07-31T00:39:16;100582.17;;;22.82;62.10
75745;BME280;64359;51.366;-0.222;2023-07-31T00:40:20;100578.02;;;22.78;62.16
75745;BME280;64359;51.366;-0.222;2023-07-31T00:41:25;100578.06;;;22.80;62.19
75745;BME280;64359;51.366;-0.222;2023-07-31T00:42:29;100576.92;;;22.81;62.23
75745;BME280;64359;51.366;-0.222;2023-07-31T00:43:33;100577.44;;;22.81;62.10
75745;BME280;64359;51.366;-0.222;2023-07-31T00:44:38;100567.49;;;22.78;62.33
75745;BME280;64359;51.366;-0.222;2023-07-31T00:45:42;100571.52;;;22.84;62.32
75745;BME280;64359;51.366;-0.222;2023-07-31T00:46:46;100572.48;;;22.84;62.23
75745;BME280;64359;51.366;-0.222;2023-07-31T00:47:51;100566.55;;;22.84;62.23
75745;BME280;64359;51.366;-0.222;2023-07-31T00:48:55;100569.55;;;22.84;62.24
75745;BME280;64359;51.366;-0.222;2023-07-31T00:50:00;100556.17;;;22.80;62.15
75745;BME280;64359;51.366;-0.222;2023-07-31T00:51:04;100566.09;;;22.85;62.25
75745;BME280;64359;51.366;-0.222;2023-07-31T00:52:10;100557.22;;;22.81;62.19
75745;BME280;64359;51.366;-0.222;2023-07-31T00:53:15;100564.05;;;22.85;62.23
75745;BME280;64359;51.366;-0.222;2023-07-31T00:54:19;100559.57;;;22.85;62.00
75745;BME280;64359;51.366;-0.222;2023-07-31T00:55:24;100557.65;;;22.84;62.28
75745;BME280;64359;51.366;-0.222;2023-07-31T00:56:29;100552.39;;;22.84;62.24
75745;BME280;64359;51.366;-0.222;2023-07-31T00:57:34;100553.56;;;22.84;62.13
75745;BME280;64359;51.366;-0.222;2023-07-31T00:58:40;100545.56;;;22.82;62.17
75745;BME280;64359;51.366;-0.222;2023-07-31T00:59:45;100542.67;;;22.78;62.02
75745;BME280;64359;51.366;-0.222;2023-07-31T01:00:50;100552.38;;;22.82;62.13
75745;BME280;64359;51.366;-0.222;2023-07-31T01:01:54;100551.30;;;22.82;62.09
75745;BME280;64359;51.366;-0.222;2023-07-31T01:02:59;100551.02;;;22.81;62.08
75745;BME280;64359;51.366;-0.222;2023-07-31T01:04:04;100542.81;;;22.79;62.22
75745;BME280;64359;51.366;-0.222;2023-07-31T01:05:09;100543.91;;;22.80;62.16
75745;BME280;64359;51.366;-0.222;2023-07-31T01:06:20;100539.27;;;22.79;62.08
75745;BME280;64359;51.366;-0.222;2023-07-31T01:07:30;100537.35;;;22.79;62.27
75745;BME280;64359;51.366;-0.222;2023-07-31T01:08:42;100533.80;;;22.76;62.39
75745;BME280;64359;51.366;-0.222;2023-07-31T01:09:55;100532.55;;;22.76;62.35
75745;BME280;64359;51.366;-0.222;2023-07-31T01:11:05;100525.90;;;22.77;62.51
75745;BME280;64359;51.366;-0.222;2023-07-31T01:12:15;100516.79;;;22.77;62.33
75745;BME280;64359;51.366;-0.222;2023-07-31T01:13:20;100513.20;;;22.78;62.42
75745;BME280;64359;51.366;-0.222;2023-07-31T01:14:25;100504.45;;;22.74;62.38
75745;BME280;64359;51.366;-0.222;2023-07-31T01:15:29;100508.64;;;22.80;62.38
75745;BME280;64359;51.366;-0.222;2023-07-31T01:16:34;100507.06;;;22.81;62.41
75745;BME280;64359;51.366;-0.222;2023-07-31T01:17:38;100508.97;;;22.81;62.12
75745;BME280;64359;51.366;-0.222;2023-07-31T01:18:43;100506.13;;;22.81;62.20
75745;BME280;64359;51.366;-0.222;2023-07-31T01:19:48;100509.42;;;22.82;62.07
75745;BME280;64359;51.366;-0.222;2023-07-31T01:21:01;100503.36;;;22.79;62.36
75745;BME280;64359;51.366;-0.222;2023-07-31T01:22:33;100500.77;;;22.79;62.17
75745;BME280;64359;51.366;-0.222;2023-07-31T01:23:56;100503.92;;;22.80;62.25
75745;BME280;64359;51.366;-0.222;2023-07-31T01:25:16;100498.62;;;22.79;62.22
75745;BME280;64359;51.366;-0.222;2023-07-31T01:26:27;100503.89;;;22.80;62.28
75745;BME280;64359;51.366;-0.222;2023-07-31T01:27:37;100500.73;;;22.79;62.28
75745;BME280;64359;51.366;-0.222;2023-07-31T01:28:50;100499.83;;;22.79;62.28
75745;BME280;64359;51.366;-0.222;2023-07-31T01:29:59;100491.55;;;22.74;62.36
75745;BME280;64359;51.366;-0.222;2023-07-31T01:31:06;100503.14;;;22.78;62.30
75745;BME280;64359;51.366;-0.222;2023-07-31T01:32:12;100496.52;;;22.77;62.25
75745;BME280;64359;51.366;-0.222;2023-07-31T01:33:18;100494.06;;;22.76;62.43
75745;BME280;64359;51.366;-0.222;2023-07-31T01:34:23;100490.84;;;22.76;62.30
75745;BME280;64359;51.366;-0.222;2023-07-31T01:35:28;100484.91;;;22.76;62.27
75745;BME280;64359;51.366;-0.222;2023-07-31T01:36:33;100477.77;;;22.74;62.34
75745;BME280;64359;51.366;-0.222;2023-07-31T01:37:37;100478.06;;;22.76;62.33
75745;BME280;64359;51.366;-0.222;2023-07-31T01:38:42;100478.10;;;22.77;62.35
75745;BME280;64359;51.366;-0.222;2023-07-31T01:39:46;100476.35;;;22.76;62.27
75745;BME280;64359;51.366;-0.222;2023-07-31T01:40:54;100478.06;;;22.77;62.35
75745;BME280;64359;51.366;-0.222;2023-07-31T01:41:58;100473.85;;;22.77;62.38
75745;BME280;64359;51.366;-0.222;2023-07-31T01:43:02;100468.70;;;22.74;62.22
75745;BME280;64359;51.366;-0.222;2023-07-31T01:44:07;100475.55;;;22.78;62.29
75745;BME280;64359;51.366;-0.222;2023-07-31T01:45:13;100475.39;;;22.79;62.25
75745;BME280;64359;51.366;-0.222;2023-07-31T01:46:18;100467.73;;;22.75;62.29
75745;BME280;64359;51.366;-0.222;2023-07-31T01:47:22;100472.17;;;22.79;62.26
75745;BME280;64359;51.366;-0.222;2023-07-31T01:48:26;100469.24;;;22.79;62.17
75745;BME280;64359;51.366;-0.222;2023-07-31T01:49:31;100455.66;;;22.75;62.06
75745;BME280;64359;51.366;-0.222;2023-07-31T01:50:35;100465.79;;;22.79;62.10
75745;BME280;64359;51.366;-0.222;2023-07-31T01:51:40;100460.51;;;22.79;62.11
75745;BME280;64359;51.366;-0.222;2023-07-31T01:52:44;100449.52;;;22.75;62.09
75745;BME280;64359;51.366;-0.222;2023-07-31T01:53:48;100449.86;;;22.78;62.11
75745;BME280;64359;51.366;-0.222;2023-07-31T01:54:53;100450.45;;;22.78;62.06
75745;BME280;64359;51.366;-0.222;2023-07-31T01:55:57;100449.44;;;22.77;62.16
75745;BME280;64359;51.366;-0.222;2023-07-31T01:57:02;100442.67;;;22.76;62.15
75745;BME280;64359;51.366;-0.222;2023-07-31T01:58:06;100436.70;;;22.71;62.11
75745;BME280;64359;51.366;-0.222;2023-07-31T01:59:11;100445.17;;;22.74;62.21
75745;BME280;64359;51.366;-0.222;2023-07-31T02:00:16;100444.39;;;22.74;62.26
75745;BME280;64359;51.366;-0.222;2023-07-31T02:01:20;100445.59;;;22.73;62.18
75745;BME280;64359;51.366;-0.222;2023-07-31T02:02:25;100445.18;;;22.74;62.28
75745;BME280;64359;51.366;-0.222;2023-07-31T02:03:29;100447.10;;;22.74;62.39
75745;BME280;64359;51.366;-0.222;2023-07-31T02:04:33;100449.23;;;22.76;62.42
75745;BME280;64359;51.366;-0.222;2023-07-31T02:05:45;100448.65;;;22.76;62.36
75745;BME280;64359;51.366;-0.222;2023-07-31T02:06:49;100449.27;;;22.77;62.29
75745;BME280;64359;51.366;-0.222;2023-07-31T02:07:54;100448.02;;;22.77;62.22
75745;BME280;64359;51.366;-0.222;2023-07-31T02:08:58;100444.43;;;22.78;62.13
75745;BME280;64359;51.366;-0.222;2023-07-31T02:10:03;100444.84;;;22.79;62.25
75745;BME280;64359;51.366;-0.222;2023-07-31T02:11:08;100432.22;;;22.74;62.18
75745;BME280;64359;51.366;-0.222;2023-07-31T02:12:12;100439.75;;;22.79;62.09
75745;BME280;64359;51.366;-0.222;2023-07-31T02:13:17;100434.48;;;22.79;62.13
75745;BME280;64359;51.366;-0.222;2023-07-31T02:14:21;100432.89;;;22.79;62.12
75745;BME280;64359;51.366;-0.222;2023-07-31T02:15:26;100434.52;;;22.79;61.96
75745;BME280;64359;51.366;-0.222;2023-07-31T02:16:30;100437.36;;;22.78;62.13
75745;BME280;64359;51.366;-0.222;2023-07-31T02:17:34;100429.89;;;22.77;62.23
75745;BME280;64359;51.366;-0.222;2023-07-31T02:18:39;100429.23;;;22.77;62.06
75745;BME280;64359;51.366;-0.222;2023-07-31T02:19:44;100428.89;;;22.76;61.91
75745;BME280;64359;51.366;-0.222;2023-07-31T02:20:51;100422.37;;;22.71;62.14
75745;BME280;64359;51.366;-0.222;2023-07-31T02:21:56;100432.77;;;22.75;62.29
75745;BME280;64359;51.366;-0.222;2023-07-31T02:23:00;100431.19;;;22.74;62.20
75745;BME280;64359;51.366;-0.222;2023-07-31T02:24:05;100428.42;;;22.73;62.20
75745;BME280;64359;51.366;-0.222;2023-07-31T02:25:10;100419.60;;;22.69;62.10
75745;BME280;64359;51.366;-0.222;2023-07-31T02:26:15;100425.38;;;22.72;62.24
75745;BME280;64359;51.366;-0.222;2023-07-31T02:27:19;100417.50;;;22.71;62.31
75745;BME280;64359;51.366;-0.222;2023-07-31T02:28:27;100402.34;;;22.65;62.22
75745;BME280;64359;51.366;-0.222;2023-07-31T02:29:31;100407.73;;;22.69;62.33
75745;BME280;64359;51.366;-0.222;2023-07-31T02:30:36;100396.98;;;22.63;62.49
75745;BME280;64359;51.366;-0.222;2023-07-31T02:31:40;100399.86;;;22.68;62.46
75745;BME280;64359;51.366;-0.222;2023-07-31T02:32:44;100412.98;;;22.72;62.29
75745;BME280;64359;51.366;-0.222;2023-07-31T02:33:49;100409.55;;;22.74;62.38
75745;BME280;64359;51.366;-0.222;2023-07-31T02:34:53;100405.83;;;22.72;62.19
75745;BME280;64359;51.366;-0.222;2023-07-31T02:35:57;100408.83;;;22.76;62.22
75745;BME280;64359;51.366;-0.222;2023-07-31T02:37:02;100404.56;;;22.77;62.27
75745;BME280;64359;51.366;-0.222;2023-07-31T02:38:06;100403.39;;;22.77;62.04
75745;BME280;64359;51.366;-0.222;2023-07-31T02:39:10;100399.55;;;22.78;62.22
75745;BME280;64359;51.366;-0.222;2023-07-31T02:40:15;100400.14;;;22.79;62.15
75745;BME280;64359;51.366;-0.222;2023-07-31T02:41:19;100401.14;;;22.79;61.97
75745;BME280;64359;51.366;-0.222;2023-07-31T02:42:24;100392.78;;;22.79;62.10
75745;BME280;64359;51.366;-0.222;2023-07-31T02:43:28;100390.82;;;22.79;62.02
75745;BME280;64359;51.366;-0.222;2023-07-31T02:44:32;100386.55;;;22.75;62.14
75745;BME280;64359;51.366;-0.222;2023-07-31T02:45:37;100394.63;;;22.78;62.02
75745;BME280;64359;51.366;-0.222;2023-07-31T02:46:44;100390.15;;;22.76;61.90
75745;BME280;64359;51.366;-0.222;2023-07-31T02:47:48;100384.55;;;22.74;62.00
75745;BME280;64359;51.366;-0.222;2023-07-31T02:48:52;100391.16;;;22.76;62.09
75745;BME280;64359;51.366;-0.222;2023-07-31T02:49:57;100383.39;;;22.70;62.08
75745;BME280;64359;51.366;-0.222;2023-07-31T02:51:02;100389.23;;;22.74;62.03
75745;BME280;64359;51.366;-0.222;2023-07-31T02:52:07;100388.79;;;22.73;62.31
75745;BME280;64359;51.366;-0.222;2023-07-31T02:53:12;100387.48;;;22.72;62.14
75745;BME280;64359;51.366;-0.222;2023-07-31T02:54:17;100382.42;;;22.69;62.29
75745;BME280;64359;51.366;-0.222;2023-07-31T02:55:23;100382.45;;;22.70;62.22
75745;BME280;64359;51.366;-0.222;2023-07-31T02:56:27;100377.77;;;22.66;62.12
75745;BME280;64359;51.366;-0.222;2023-07-31T02:57:32;100383.92;;;22.70;62.32
75745;BME280;64359;51.366;-0.222;2023-07-31T02:58:36;100380.82;;;22.70;62.23
75745;BME280;64359;51.366;-0.222;2023-07-31T02:59:41;100377.27;;;22.70;62.21
75745;BME280;64359;51.366;-0.222;2023-07-31T03:00:45;100369.96;;;22.65;62.28
75745;BME280;64359;51.366;-0.222;2023-07-31T03:01:50;100371.09;;;22.67;62.15
75745;BME280;64359;51.366;-0.222;2023-07-31T03:02:54;100379.78;;;22.71;62.23
75745;BME280;64359;51.366;-0.222;2023-07-31T03:03:58;100377.64;;;22.71;62.28
75745;BME280;64359;51.366;-0.222;2023-07-31T03:05:03;100379.30;;;22.72;62.09
75745;BME280;64359;51.366;-0.222;2023-07-31T03:06:07;100379.97;;;22.73;62.36
75745;BME280;64359;51.366;-0.222;2023-07-31T03:07:12;100373.61;;;22.73;62.14
75745;BME280;64359;51.366;-0.222;2023-07-31T03:08:16;100373.08;;;22.73;62.12
75745;BME280;64359;51.366;-0.222;2023-07-31T03:09:21;100379.67;;;22.74;62.21
75745;BME280;64359;51.366;-0.222;2023-07-31T03:10:26;100375.50;;;22.74;62.01
75745;BME280;64359;51.366;-0.222;2023-07-31T03:11:30;100377.29;;;22.74;61.95
75745;BME280;64359;51.366;-0.222;2023-07-31T03:12:34;100375.63;;;22.74;62.15
75745;BME280;64359;51.366;-0.222;2023-07-31T03:13:39;100374.37;;;22.74;62.32
75745;BME280;64359;51.366;-0.222;2023-07-31T03:14:43;100376.04;;;22.74;62.26
75745;BME280;64359;51.366;-0.222;2023-07-31T03:15:48;100373.36;;;22.73;62.22
75745;BME280;64359;51.366;-0.222;2023-07-31T03:16:53;100366.02;;;22.68;62.26
75745;BME280;64359;51.366;-0.222;2023-07-31T03:17:57;100371.06;;;22.72;62.21
75745;BME280;64359;51.366;-0.222;2023-07-31T03:19:02;100372.27;;;22.71;62.13
75745;BME280;64359;51.366;-0.222;2023-07-31T03:20:08;100371.71;;;22.67;62.28
75745;BME280;64359;51.366;-0.222;2023-07-31T03:21:13;100375.73;;;22.69;62.26
75745;BME280;64359;51.366;-0.222;2023-07-31T03:22:18;100377.35;;;22.69;62.35
75745;BME280;64359;51.366;-0.222;2023-07-31T03:23:22;100382.73;;;22.71;62.27
75745;BME280;64359;51.366;-0.222;2023-07-31T03:24:29;100381.04;;;22.71;62.36
75745;BME280;64359;51.366;-0.222;2023-07-31T03:25:34;100381.59;;;22.72;62.33
75745;BME280;64359;51.366;-0.222;2023-07-31T03:26:38;100367.64;;;22.64;62.21
75745;BME280;64359;51.366;-0.222;2023-07-31T03:27:44;100371.60;;;22.68;62.35
75745;BME280;64359;51.366;-0.222;2023-07-31T03:28:49;100380.09;;;22.72;62.19
75745;BME280;64359;51.366;-0.222;2023-07-31T03:29:53;100376.93;;;22.71;62.22
75745;BME280;64359;51.366;-0.222;2023-07-31T03:30:58;100382.27;;;22.70;62.26
75745;BME280;64359;51.366;-0.222;2023-07-31T03:32:03;100379.19;;;22.70;62.12
75745;BME280;64359;51.366;-0.222;2023-07-31T03:33:07;100380.91;;;22.67;62.24
75745;BME280;64359;51.366;-0.222;2023-07-31T03:34:12;100380.52;;;22.70;62.13
75745;BME280;64359;51.366;-0.222;2023-07-31T03:35:18;100375.77;;;22.66;62.25
75745;BME280;64359;51.366;-0.222;2023-07-31T03:36:23;100373.85;;;22.64;62.29
75745;BME280;64359;51.366;-0.222;2023-07-31T03:37:27;100377.44;;;22.67;62.19
75745;BME280;64359;51.366;-0.222;2023-07-31T03:38:32;100377.81;;;22.67;62.33
75745;BME280;64359;51.366;-0.222;2023-07-31T03:39:36;100370.72;;;22.66;62.33
75745;BME280;64359;51.366;-0.222;2023-07-31T03:40:41;100367.91;;;22.65;62.18
75745;BME280;64359;51.366;-0.222;2023-07-31T03:41:45;100364.99;;;22.64;62.43
75745;BME280;64359;51.366;-0.222;2023-07-31T03:42:49;100361.11;;;22.62;62.35
75745;BME280;64359;51.366;-0.222;2023-07-31T03:43:54;100357.32;;;22.62;62.36
75745;BME280;64359;51.366;-0.222;2023-07-31T03:44:59;100362.70;;;22.61;62.41
75745;BME280;64359;51.366;-0.222;2023-07-31T03:46:03;100357.02;;;22.60;62.52
75745;BME280;64359;51.366;-0.222;2023-07-31T03:47:08;100355.23;;;22.60;62.44
75745;BME280;64359;51.366;-0.222;2023-07-31T03:48:13;100351.09;;;22.60;62.48
75745;BME280;64359;51.366;-0.222;2023-07-31T03:49:17;100342.45;;;22.58;62.45
75745;BME280;64359;51.366;-0.222;2023-07-31T03:50:24;100346.66;;;22.60;62.47
75745;BME280;64359;51.366;-0.222;2023-07-31T03:51:29;100343.48;;;22.61;62.50
75745;BME280;64359;51.366;-0.222;2023-07-31T03:52:34;100345.29;;;22.61;62.67
75745;BME280;64359;51.366;-0.222;2023-07-31T03:53:38;100338.30;;;22.58;62.50
75745;BME280;64359;51.366;-0.222;2023-07-31T03:54:43;100336.14;;;22.58;62.45
75745;BME280;64359;51.366;-0.222;2023-07-31T03:55:48;100339.64;;;22.61;62.39
75745;BME280;64359;51.366;-0.222;2023-07-31T03:56:52;100329.25;;;22.53;62.40
75745;BME280;64359;51.366;-0.222;2023-07-31T03:57:57;100345.13;;;22.61;62.54
75745;BME280;64359;51.366;-0.222;2023-07-31T03:59:01;100347.13;;;22.61;62.45
75745;BME280;64359;51.366;-0.222;2023-07-31T04:00:07;100356.44;;;22.60;62.43
75745;BME280;64359;51.366;-0.222;2023-07-31T04:01:13;100350.47;;;22.60;62.39
75745;BME280;64359;51.366;-0.222;2023-07-31T04:02:18;100351.02;;;22.61;62.41
75745;BME280;64359;51.366;-0.222;2023-07-31T04:03:22;100348.13;;;22.60;62.52
75745;BME280;64359;51.366;-0.222;2023-07-31T04:04:27;100347.92;;;22.59;62.39
75745;BME280;64359;51.366;-0.222;2023-07-31T04:05:32;100350.02;;;22.59;62.48
75745;BME280;64359;51.366;-0.222;2023-07-31T04:06:37;100345.96;;;22.58;62.52
75745;BME280;64359;51.366;-0.222;2023-07-31T04:07:41;100345.88;;;22.57;62.47
75745;BME280;64359;51.366;-0.222;2023-07-31T04:08:45;100348.48;;;22.57;62.47
75745;BME280;64359;51.366;-0.222;2023-07-31T04:09:50;100351.14;;;22.56;62.45
75745;BME280;64359;51.366;-0.222;2023-07-31T04:10:54;100352.31;;;22.55;62.44
75745;BME280;64359;51.366;-0.222;2023-07-31T04:11:59;100352.31;;;22.54;62.69
75745;BME280;64359;51.366;-0.222;2023-07-31T04:13:08;100354.15;;;22.54;62.52
75745;BME280;64359;51.366;-0.222;2023-07-31T04:14:13;100344.80;;;22.49;62.56
75745;BME280;64359;51.366;-0.222;2023-07-31T04:15:18;100352.94;;;22.56;62.71
75745;BME280;64359;51.366;-0.222;2023-07-31T04:16:22;100348.34;;;22.56;62.60
75745;BME280;64359;51.366;-0.222;2023-07-31T04:17:27;100351.65;;;22.57;62.61
75745;BME280;64359;51.366;-0.222;2023-07-31T04:18:31;100346.88;;;22.58;62.59
75745;BME280;64359;51.366;-0.222;2023-07-31T04:19:35;100353.14;;;22.58;62.53
75745;BME280;64359;51.366;-0.222;2023-07-31T04:20:40;100346.38;;;22.55;62.52
75745;BME280;64359;51.366;-0.222;2023-07-31T04:21:44;100353.39;;;22.58;62.45
75745;BME280;64359;51.366;-0.222;2023-07-31T04:22:49;100341.37;;;22.53;62.60
75745;BME280;64359;51.366;-0.222;2023-07-31T04:23:54;100351.80;;;22.58;62.51
75745;BME280;64359;51.366;-0.222;2023-07-31T04:24:59;100349.85;;;22.57;62.48
75745;BME280;64359;51.366;-0.222;2023-07-31T04:26:03;100346.17;;;22.58;62.43
75745;BME280;64359;51.366;-0.222;2023-07-31T04:27:08;100330.27;;;22.53;62.54
75745;BME280;64359;51.366;-0.222;2023-07-31T04:28:12;100337.15;;;22.57;62.49
75745;BME280;64359;51.366;-0.222;2023-07-31T04:29:16;100334.31;;;22.57;62.34
75745;BME280;64359;51.366;-0.222;2023-07-31T04:30:21;100332.14;;;22.57;62.49
75745;BME280;64359;51.366;-0.222;2023-07-31T04:31:25;100329.72;;;22.56;62.31
75745;BME280;64359;51.366;-0.222;2023-07-31T04:32:30;100331.39;;;22.56;62.44
75745;BME280;64359;51.366;-0.222;2023-07-31T04:33:34;100321.75;;;22.50;62.47
75745;BME280;64359;51.366;-0.222;2023-07-31T04:34:38;100334.56;;;22.55;62.46
75745;BME280;64359;51.366;-0.222;2023-07-31T04:35:46;100331.18;;;22.51;62.65
75745;BME280;64359;51.366;-0.222;2023-07-31T04:36:54;100338.36;;;22.54;62.60
75745;BME280;64359;51.366;-0.222;2023-07-31T04:37:59;100335.45;;;22.54;62.55
75745;BME280;64359;51.366;-0.222;2023-07-31T04:39:03;100335.61;;;22.54;62.62
75745;BME280;64359;51.366;-0.222;2023-07-31T04:40:09;100332.65;;;22.55;62.66
75745;BME280;64359;51.366;-0.222;2023-07-31T04:41:14;100332.14;;;22.55;62.74
75745;BME280;64359;51.366;-0.222;2023-07-31T04:42:18;100338.40;;;22.56;62.71
75745;BME280;64359;51.366;-0.222;2023-07-31T04:43:23;100338.48;;;22.57;62.62
75745;BME280;64359;51.366;-0.222;2023-07-31T04:44:27;100339.45;;;22.58;62.44
75745;BME280;64359;51.366;-0.222;2023-07-31T04:45:31;100338.60;;;22.57;62.56
75745;BME280;64359;51.366;-0.222;2023-07-31T04:46:36;100341.91;;;22.57;62.47
75745;BME280;64359;51.366;-0.222;2023-07-31T04:47:40;100335.77;;;22.57;62.53
75745;BME280;64359;51.366;-0.222;2023-07-31T04:48:44;100331.02;;;22.52;62.36
75745;BME280;64359;51.366;-0.222;2023-07-31T04:49:49;100333.98;;;22.57;62.46
75745;BME280;64359;51.366;-0.222;2023-07-31T04:50:53;100333.65;;;22.57;62.42
75745;BME280;64359;51.366;-0.222;2023-07-31T04:51:58;100331.77;;;22.56;62.48
75745;BME280;64359;51.366;-0.222;2023-07-31T04:53:02;100330.60;;;22.55;62.50
75745;BME280;64359;51.366;-0.222;2023-07-31T04:54:06;100331.10;;;22.55;62.44
75745;BME280;64359;51.366;-0.222;2023-07-31T04:55:11;100325.42;;;22.49;62.53
75745;BME280;64359;51.366;-0.222;2023-07-31T04:56:17;100329.09;;;22.50;62.40
75745;BME280;64359;51.366;-0.222;2023-07-31T04:57:21;100335.11;;;22.54;62.56
75745;BME280;64359;51.366;-0.222;2023-07-31T04:58:25;100335.66;;;22.52;62.46
75745;BME280;64359;51.366;-0.222;2023-07-31T04:59:30;100336.08;;;22.52;62.38
75745;BME280;64359;51.366;-0.222;2023-07-31T05:00:34;100334.83;;;22.51;62.45
75745;BME280;64359;51.366;-0.222;2023-07-31T05:01:39;100338.12;;;22.50;62.53
75745;BME280;64359;51.366;-0.222;2023-07-31T05:02:43;100334.23;;;22.50;62.66
75745;BME280;64359;51.366;-0.222;2023-07-31T05:03:48;100331.85;;;22.51;62.67
75745;BME280;64359;51.366;-0.222;2023-07-31T05:04:52;100333.28;;;22.51;62.67
75745;BME280;64359;51.366;-0.222;2023-07-31T05:05:56;100327.14;;;22.47;62.63
75745;BME280;64359;51.366;-0.222;2023-07-31T05:07:01;100332.61;;;22.52;62.58
75745;BME280;64359;51.366;-0.222;2023-07-31T05:08:05;100330.60;;;22.52;62.70
75745;BME280;64359;51.366;-0.222;2023-07-31T05:09:09;100335.57;;;22.53;62.65
75745;BME280;64359;51.366;-0.222;2023-07-31T05:10:15;100324.80;;;22.50;62.67
75745;BME280;64359;51.366;-0.222;2023-07-31T05:11:19;100327.64;;;22.53;62.61
75745;BME280;64359;51.366;-0.222;2023-07-31T05:12:23;100329.85;;;22.51;62.59
75745;BME280;64359;51.366;-0.222;2023-07-31T05:13:28;100329.90;;;22.52;62.62
75745;BME280;64359;51.366;-0.222;2023-07-31T05:14:33;100321.20;;;22.48;62.60
75745;BME280;64359;51.366;-0.222;2023-07-31T05:15:37;100321.00;;;22.47;62.59
75745;BME280;64359;51.366;-0.222;2023-07-31T05:16:42;100323.55;;;22.51;62.54
75745;BME280;64359;51.366;-0.222;2023-07-31T05:17:46;100316.23;;;22.46;62.68
75745;BME280;64359;51.366;-0.222;2023-07-31T05:18:50;100314.94;;;22.47;62.50
75745;BME280;64359;51.366;-0.222;2023-07-31T05:19:54;100324.23;;;22.50;62.71
75745;BME280;64359;51.366;-0.222;2023-07-31T05:20:59;100324.92;;;22.49;62.49
75745;BME280;64359;51.366;-0.222;2023-07-31T05:22:04;100324.72;;;22.48;62.66
75745;BME280;64359;51.366;-0.222;2023-07-31T05:23:08;100325.02;;;22.49;62.54
75745;BME280;64359;51.366;-0.222;2023-07-31T05:24:13;100328.73;;;22.48;62.54
75745;BME280;64359;51.366;-0.222;2023-07-31T05:25:18;100326.21;;;22.47;62.71
75745;BME280;64359;51.366;-0.222;2023-07-31T05:26:22;100318.23;;;22.44;62.64
75745;BME280;64359;51.366;-0.222;2023-07-31T05:27:27;100326.22;;;22.49;62.67
75745;BME280;64359;51.366;-0.222;2023-07-31T05:28:33;100327.43;;;22.49;62.76
75745;BME280;64359;51.366;-0.222;2023-07-31T05:29:38;100323.55;;;22.50;62.74
75745;BME280;64359;51.366;-0.222;2023-07-31T05:30:43;100322.46;;;22.50;62.69
75745;BME280;64359;51.366;-0.222;2023-07-31T05:31:48;100321.09;;;22.51;62.70
75745;BME280;64359;51.366;-0.222;2023-07-31T05:32:52;100328.52;;;22.51;62.72
75745;BME280;64359;51.366;-0.222;2023-07-31T05:33:57;100326.27;;;22.51;62.61
75745;BME280;64359;51.366;-0.222;2023-07-31T05:35:01;100332.61;;;22.51;62.50
75745;BME280;64359;51.366;-0.222;2023-07-31T05:36:06;100329.52;;;22.51;62.65